sensor_id;sensor_type;location;lat;lon;timestamp;temperature;humidity
23579;DHT22;11967;50.852;4.400;2024-03-25T00:00:10;10.30;99.90
23579;DHT22;11967;50.852;4.400;2024-03-25T00:02:39;10.30;99.90
23579;DHT22;11967;50.852;4.400;2024-03-25T00:05:06;10.20;99.90
23579;DHT22;11967;50.852;4.400;2024-03-25T00:07:37;10.20;99.90
23579;DHT22;11967;50.852;4.400;2024-03-25T00:10:04;10.30;99.90
23579;DHT22;11967;50.852;4.400;2024-03-25T00:12:32;10.30;99.90
23579;DHT22;11967;50.852;4.400;2024-03-25T00:14:57;10.20;99.90
23579;DHT22;11967;50.852;4.400;2024-03-25T00:17:23;10.30;99.90
23579;DHT22;11967;50.852;4.400;2024-03-25T00:19:49;10.20;99.90
23579;DHT22;11967;50.852;4.400;2024-03-25T00:22:18;10.20;99.90
23579;DHT22;11967;50.852;4.400;2024-03-25T00:24:48;10.30;99.90
23579;DHT22;11967;50.852;4.400;2024-03-25T00:27:14;10.20;99.90
23579;DHT22;11967;50.852;4.400;2024-03-25T00:29:40;10.20;99.90
23579;DHT22;11967;50.852;4.400;2024-03-25T00:32:06;10.20;99.90
23579;DHT22;11967;50.852;4.400;2024-03-25T00:34:33;10.20;99.90
23579;DHT22;11967;50.852;4.400;2024-03-25T00:36:59;10.20;99.90
23579;DHT22;11967;50.852;4.400;2024-03-25T00:39:25;10.20;99.90
23579;DHT22;11967;50.852;4.400;2024-03-25T00:41:51;10.10;99.90
23579;DHT22;11967;50.852;4.400;2024-03-25T00:44:18;10.20;99.90
23579;DHT22;11967;50.852;4.400;2024-03-25T00:46:44;10.30;99.90
23579;DHT22;11967;50.852;4.400;2024-03-25T00:49:10;10.30;99.90
23579;DHT22;11967;50.852;4.400;2024-03-25T00:51:36;10.20;99.90
23579;DHT22;11967;50.852;4.400;2024-03-25T00:54:02;10.20;99.90
23579;DHT22;11967;50.852;4.400;2024-03-25T00:56:32;10.20;99.90
23579;DHT22;11967;50.852;4.400;2024-03-25T00:58:57;10.20;99.90
23579;DHT22;11967;50.852;4.400;2024-03-25T01:01:28;10.20;99.90
23579;DHT22;11967;50.852;4.400;2024-03-25T01:03:54;10.20;99.90
23579;DHT22;11967;50.852;4.400;2024-03-25T01:06:19;10.30;99.90
23579;DHT22;11967;50.852;4.400;2024-03-25T01:08:45;10.20;99.90
23579;DHT22;11967;50.852;4.400;2024-03-25T01:11:12;10.20;99.90
23579;DHT22;11967;50.852;4.400;2024-03-25T01:13:37;10.20;99.90
23579;DHT22;11967;50.852;4.400;2024-03-25T01:16:03;10.10;99.90
23579;DHT22;11967;50.852;4.400;2024-03-25T01:18:29;10.20;99.90
23579;DHT22;11967;50.852;4.400;2024-03-25T01:20:54;10.20;99.90
23579;DHT22;11967;50.852;4.400;2024-03-25T01:23:20;10.20;99.90
23579;DHT22;11967;50.852;4.400;2024-03-25T01:25:47;10.20;99.90
23579;DHT22;11967;50.852;4.400;2024-03-25T01:28:12;10.20;99.90
23579;DHT22;11967;50.852;4.400;2024-03-25T01:30:38;10.10;99.90
23579;DHT22;11967;50.852;4.400;2024-03-25T01:33:06;10.20;99.90
23579;DHT22;11967;50.852;4.400;2024-03-25T01:35:32;10.10;99.90
23579;DHT22;11967;50.852;4.400;2024-03-25T01:37:58;10.10;99.90
23579;DHT22;11967;50.852;4.400;2024-03-25T01:40:23;10.10;99.90
23579;DHT22;11967;50.852;4.400;2024-03-25T01:42:59;10.10;99.90
23579;DHT22;11967;50.852;4.400;2024-03-25T01:45:28;10.10;99.90
23579;DHT22;11967;50.852;4.400;2024-03-25T01:47:56;10.10;99.90
23579;DHT22;11967;50.852;4.400;2024-03-25T01:50:23;10.10;99.90
23579;DHT22;11967;50.852;4.400;2024-03-25T01:52:49;10.10;99.90
23579;DHT22;11967;50.852;4.400;2024-03-25T01:55:17;10.20;99.90
23579;DHT22;11967;50.852;4.400;2024-03-25T01:57:47;10.20;99.90
23579;DHT22;11967;50.852;4.400;2024-03-25T02:00:14;10.10;99.90
23579;DHT22;11967;50.852;4.400;2024-03-25T02:02:42;10.10;99.90
23579;DHT22;11967;50.852;4.400;2024-03-25T02:05:10;10.10;99.90
23579;DHT22;11967;50.852;4.400;2024-03-25T02:07:36;10.20;99.90
23579;DHT22;11967;50.852;4.400;2024-03-25T02:10:05;10.10;99.90
23579;DHT22;11967;50.852;4.400;2024-03-25T02:12:32;10.00;99.90
23579;DHT22;11967;50.852;4.400;2024-03-25T02:14:59;10.10;99.90
23579;DHT22;11967;50.852;4.400;2024-03-25T02:17:25;10.00;99.90
23579;DHT22;11967;50.852;4.400;2024-03-25T02:19:51;10.00;99.90
23579;DHT22;11967;50.852;4.400;2024-03-25T02:22:16;10.00;99.90
23579;DHT22;11967;50.852;4.400;2024-03-25T02:24:45;10.00;99.90
23579;DHT22;11967;50.852;4.400;2024-03-25T02:27:11;10.00;99.90
23579;DHT22;11967;50.852;4.400;2024-03-25T02:29:40;10.00;99.90
23579;DHT22;11967;50.852;4.400;2024-03-25T02:32:07;10.10;99.90
23579;DHT22;11967;50.852;4.400;2024-03-25T02:34:41;10.20;99.90
23579;DHT22;11967;50.852;4.400;2024-03-25T02:37:08;10.10;99.90
23579;DHT22;11967;50.852;4.400;2024-03-25T02:39:35;10.20;99.90
23579;DHT22;11967;50.852;4.400;2024-03-25T02:42:01;10.10;99.90
23579;DHT22;11967;50.852;4.400;2024-03-25T02:44:27;10.10;99.90
23579;DHT22;11967;50.852;4.400;2024-03-25T02:46:53;10.00;99.90
23579;DHT22;11967;50.852;4.400;2024-03-25T02:49:19;10.00;99.90
23579;DHT22;11967;50.852;4.400;2024-03-25T02:51:45;10.00;99.90
23579;DHT22;11967;50.852;4.400;2024-03-25T02:54:11;10.00;99.90
23579;DHT22;11967;50.852;4.400;2024-03-25T02:56:39;10.00;99.90
23579;DHT22;11967;50.852;4.400;2024-03-25T02:59:05;10.10;99.90
23579;DHT22;11967;50.852;4.400;2024-03-25T03:01:30;10.20;99.90
23579;DHT22;11967;50.852;4.400;2024-03-25T03:03:57;10.00;99.90
23579;DHT22;11967;50.852;4.400;2024-03-25T03:06:22;10.00;99.90
23579;DHT22;11967;50.852;4.400;2024-03-25T03:08:48;9.90;99.90
23579;DHT22;11967;50.852;4.400;2024-03-25T03:11:14;9.90;99.90
23579;DHT22;11967;50.852;4.400;2024-03-25T03:13:39;9.90;99.90
23579;DHT22;11967;50.852;4.400;2024-03-25T03:16:05;9.90;99.90
23579;DHT22;11967;50.852;4.400;2024-03-25T03:18:31;9.90;99.90
23579;DHT22;11967;50.852;4.400;2024-03-25T03:20:56;9.90;99.90
23579;DHT22;11967;50.852;4.400;2024-03-25T03:23:23;9.90;99.90
23579;DHT22;11967;50.852;4.400;2024-03-25T03:25:49;10.00;99.90
23579;DHT22;11967;50.852;4.400;2024-03-25T03:28:15;9.90;99.90
23579;DHT22;11967;50.852;4.400;2024-03-25T03:30:41;9.90;99.90
23579;DHT22;11967;50.852;4.400;2024-03-25T03:33:07;9.90;99.90
23579;DHT22;11967;50.852;4.400;2024-03-25T03:35:33;9.90;99.90
23579;DHT22;11967;50.852;4.400;2024-03-25T03:37:59;9.80;99.90
23579;DHT22;11967;50.852;4.400;2024-03-25T03:40:24;9.90;99.90
23579;DHT22;11967;50.852;4.400;2024-03-25T03:42:50;9.90;99.90
23579;DHT22;11967;50.852;4.400;2024-03-25T03:45:15;9.90;99.90
23579;DHT22;11967;50.852;4.400;2024-03-25T03:47:41;9.90;99.90
23579;DHT22;11967;50.852;4.400;2024-03-25T03:50:09;10.00;99.90
23579;DHT22;11967;50.852;4.400;2024-03-25T03:52:35;9.90;99.90
23579;DHT22;11967;50.852;4.400;2024-03-25T03:55:00;10.10;99.90
23579;DHT22;11967;50.852;4.400;2024-03-25T03:57:26;10.00;99.90
23579;DHT22;11967;50.852;4.400;2024-03-25T03:59:52;10.00;99.90
23579;DHT22;11967;50.852;4.400;2024-03-25T04:02:17;10.00;99.90
23579;DHT22;11967;50.852;4.400;2024-03-25T04:04:44;10.00;99.90
23579;DHT22;11967;50.852;4.400;2024-03-25T04:07:10;10.00;99.90
23579;DHT22;11967;50.852;4.400;2024-03-25T04:09:35;10.00;99.90
23579;DHT22;11967;50.852;4.400;2024-03-25T04:12:01;10.00;99.90
23579;DHT22;11967;50.852;4.400;2024-03-25T04:14:27;10.00;99.90
23579;DHT22;11967;50.852;4.400;2024-03-25T04:16:52;10.00;99.90
23579;DHT22;11967;50.852;4.400;2024-03-25T04:19:19;10.00;99.90
23579;DHT22;11967;50.852;4.400;2024-03-25T04:21:45;10.00;99.90
23579;DHT22;11967;50.852;4.400;2024-03-25T04:24:11;10.10;99.90
23579;DHT22;11967;50.852;4.400;2024-03-25T04:26:37;10.00;99.90
23579;DHT22;11967;50.852;4.400;2024-03-25T04:29:03;9.90;99.90
23579;DHT22;11967;50.852;4.400;2024-03-25T04:31:29;10.00;99.90
23579;DHT22;11967;50.852;4.400;2024-03-25T04:33:54;9.90;99.90
23579;DHT22;11967;50.852;4.400;2024-03-25T04:36:20;9.90;99.90
23579;DHT22;11967;50.852;4.400;2024-03-25T04:38:46;9.90;99.90
23579;DHT22;11967;50.852;4.400;2024-03-25T04:41:11;9.90;99.90
23579;DHT22;11967;50.852;4.400;2024-03-25T04:43:37;10.00;99.90
23579;DHT22;11967;50.852;4.400;2024-03-25T04:46:02;9.90;99.90
23579;DHT22;11967;50.852;4.400;2024-03-25T04:48:29;9.90;99.90
23579;DHT22;11967;50.852;4.400;2024-03-25T04:50:55;9.90;99.90
23579;DHT22;11967;50.852;4.400;2024-03-25T04:53:20;10.00;99.90
23579;DHT22;11967;50.852;4.400;2024-03-25T04:55:46;10.00;99.90
23579;DHT22;11967;50.852;4.400;2024-03-25T04:58:13;10.00;99.90
23579;DHT22;11967;50.852;4.400;2024-03-25T05:00:38;10.00;99.90
23579;DHT22;11967;50.852;4.400;2024-03-25T05:03:05;10.00;99.90
23579;DHT22;11967;50.852;4.400;2024-03-25T05:05:31;10.00;99.90
23579;DHT22;11967;50.852;4.400;2024-03-25T05:07:56;9.90;99.90
23579;DHT22;11967;50.852;4.400;2024-03-25T05:10:23;9.90;99.90
23579;DHT22;11967;50.852;4.400;2024-03-25T05:12:48;9.90;99.90
23579;DHT22;11967;50.852;4.400;2024-03-25T05:15:15;9.90;99.90
23579;DHT22;11967;50.852;4.400;2024-03-25T05:17:42;9.80;99.90
23579;DHT22;11967;50.852;4.400;2024-03-25T05:20:14;9.90;99.90
23579;DHT22;11967;50.852;4.400;2024-03-25T05:22:41;9.90;99.90
23579;DHT22;11967;50.852;4.400;2024-03-25T05:25:07;9.90;99.90
23579;DHT22;11967;50.852;4.400;2024-03-25T05:27:33;9.80;99.90
23579;DHT22;11967;50.852;4.400;2024-03-25T05:30:00;9.80;99.90
23579;DHT22;11967;50.852;4.400;2024-03-25T05:32:28;9.70;99.90
23579;DHT22;11967;50.852;4.400;2024-03-25T05:34:57;9.80;99.90
23579;DHT22;11967;50.852;4.400;2024-03-25T05:37:30;9.70;99.90
23579;DHT22;11967;50.852;4.400;2024-03-25T05:40:13;9.70;99.90
23579;DHT22;11967;50.852;4.400;2024-03-25T05:42:45;9.70;99.90
23579;DHT22;11967;50.852;4.400;2024-03-25T05:45:10;9.70;99.90
23579;DHT22;11967;50.852;4.400;2024-03-25T05:47:36;9.60;99.90
23579;DHT22;11967;50.852;4.400;2024-03-25T05:50:02;9.60;99.90
23579;DHT22;11967;50.852;4.400;2024-03-25T05:52:31;9.60;99.90
23579;DHT22;11967;50.852;4.400;2024-03-25T05:54:56;9.70;99.90
23579;DHT22;11967;50.852;4.400;2024-03-25T05:57:22;9.70;99.90
23579;DHT22;11967;50.852;4.400;2024-03-25T05:59:49;9.60;99.90
23579;DHT22;11967;50.852;4.400;2024-03-25T06:02:14;9.60;99.90
23579;DHT22;11967;50.852;4.400;2024-03-25T06:04:40;9.70;99.90
23579;DHT22;11967;50.852;4.400;2024-03-25T06:07:06;9.70;99.90
23579;DHT22;11967;50.852;4.400;2024-03-25T06:09:31;9.70;99.90
23579;DHT22;11967;50.852;4.400;2024-03-25T06:11:57;9.60;99.90
23579;DHT22;11967;50.852;4.400;2024-03-25T06:14:23;9.70;99.90
23579;DHT22;11967;50.852;4.400;2024-03-25T06:16:49;9.70;99.90
23579;DHT22;11967;50.852;4.400;2024-03-25T06:19:14;9.70;99.90
23579;DHT22;11967;50.852;4.400;2024-03-25T06:21:40;9.70;99.90
23579;DHT22;11967;50.852;4.400;2024-03-25T06:24:08;9.80;99.90
23579;DHT22;11967;50.852;4.400;2024-03-25T06:26:33;9.70;99.90
23579;DHT22;11967;50.852;4.400;2024-03-25T06:29:00;9.80;99.90
23579;DHT22;11967;50.852;4.400;2024-03-25T06:31:25;9.80;99.90
23579;DHT22;11967;50.852;4.400;2024-03-25T06:34:09;9.80;99.90
23579;DHT22;11967;50.852;4.400;2024-03-25T06:36:44;9.80;99.90
23579;DHT22;11967;50.852;4.400;2024-03-25T06:39:10;9.80;99.90
23579;DHT22;11967;50.852;4.400;2024-03-25T06:41:36;9.80;99.90
23579;DHT22;11967;50.852;4.400;2024-03-25T06:44:01;9.90;99.90
23579;DHT22;11967;50.852;4.400;2024-03-25T06:46:27;9.90;99.90
23579;DHT22;11967;50.852;4.400;2024-03-25T06:48:53;9.90;99.90
23579;DHT22;11967;50.852;4.400;2024-03-25T06:51:18;9.80;99.90
23579;DHT22;11967;50.852;4.400;2024-03-25T06:53:45;9.70;99.90
23579;DHT22;11967;50.852;4.400;2024-03-25T06:56:11;9.80;99.90
23579;DHT22;11967;50.852;4.400;2024-03-25T06:58:36;9.70;99.90
23579;DHT22;11967;50.852;4.400;2024-03-25T07:01:06;9.70;99.90
23579;DHT22;11967;50.852;4.400;2024-03-25T07:03:33;9.80;99.90
23579;DHT22;11967;50.852;4.400;2024-03-25T07:05:59;9.80;99.90
23579;DHT22;11967;50.852;4.400;2024-03-25T07:08:26;9.80;99.90
23579;DHT22;11967;50.852;4.400;2024-03-25T07:10:52;9.80;99.90
23579;DHT22;11967;50.852;4.400;2024-03-25T07:13:18;9.90;99.90
23579;DHT22;11967;50.852;4.400;2024-03-25T07:15:45;9.90;99.90
23579;DHT22;11967;50.852;4.400;2024-03-25T07:18:11;9.90;99.90
23579;DHT22;11967;50.852;4.400;2024-03-25T07:20:42;10.00;99.90
23579;DHT22;11967;50.852;4.400;2024-03-25T07:23:07;10.00;99.90
23579;DHT22;11967;50.852;4.400;2024-03-25T07:25:57;10.00;99.90
23579;DHT22;11967;50.852;4.400;2024-03-25T07:28:23;10.10;99.90
23579;DHT22;11967;50.852;4.400;2024-03-25T07:30:55;10.10;99.90
23579;DHT22;11967;50.852;4.400;2024-03-25T07:33:24;10.10;99.90
23579;DHT22;11967;50.852;4.400;2024-03-25T07:35:51;10.10;99.90
23579;DHT22;11967;50.852;4.400;2024-03-25T07:38:17;10.00;99.90
23579;DHT22;11967;50.852;4.400;2024-03-25T07:40:43;10.10;99.90
23579;DHT22;11967;50.852;4.400;2024-03-25T07:43:09;10.20;99.90
23579;DHT22;11967;50.852;4.400;2024-03-25T07:45:34;10.20;99.90
23579;DHT22;11967;50.852;4.400;2024-03-25T07:48:00;10.20;99.90
23579;DHT22;11967;50.852;4.400;2024-03-25T07:51:00;10.20;99.90
23579;DHT22;11967;50.852;4.400;2024-03-25T07:53:40;10.40;99.90
23579;DHT22;11967;50.852;4.400;2024-03-25T07:56:10;10.30;99.90
23579;DHT22;11967;50.852;4.400;2024-03-25T07:58:39;10.30;99.90
23579;DHT22;11967;50.852;4.400;2024-03-25T08:01:06;10.30;99.90
23579;DHT22;11967;50.852;4.400;2024-03-25T08:03:31;10.40;99.90
23579;DHT22;11967;50.852;4.400;2024-03-25T08:06:00;10.40;99.90
23579;DHT22;11967;50.852;4.400;2024-03-25T08:08:25;10.50;99.90
23579;DHT22;11967;50.852;4.400;2024-03-25T08:10:51;10.50;99.90
23579;DHT22;11967;50.852;4.400;2024-03-25T08:13:19;10.60;99.90
23579;DHT22;11967;50.852;4.400;2024-03-25T08:15:45;10.50;99.90
23579;DHT22;11967;50.852;4.400;2024-03-25T08:18:11;10.50;99.90
23579;DHT22;11967;50.852;4.400;2024-03-25T08:20:38;10.50;99.90
23579;DHT22;11967;50.852;4.400;2024-03-25T08:23:03;10.50;99.90
23579;DHT22;11967;50.852;4.400;2024-03-25T08:25:29;10.50;99.90
23579;DHT22;11967;50.852;4.400;2024-03-25T08:27:55;10.50;99.90
23579;DHT22;11967;50.852;4.400;2024-03-25T08:30:21;10.60;99.90
23579;DHT22;11967;50.852;4.400;2024-03-25T08:32:47;10.50;99.90
23579;DHT22;11967;50.852;4.400;2024-03-25T08:35:13;10.70;99.90
23579;DHT22;11967;50.852;4.400;2024-03-25T08:37:38;10.90;99.90
23579;DHT22;11967;50.852;4.400;2024-03-25T08:40:05;11.00;99.90
23579;DHT22;11967;50.852;4.400;2024-03-25T08:42:31;11.00;99.90
23579;DHT22;11967;50.852;4.400;2024-03-25T08:44:56;11.10;99.90
23579;DHT22;11967;50.852;4.400;2024-03-25T08:47:22;11.10;99.90
23579;DHT22;11967;50.852;4.400;2024-03-25T08:49:48;11.00;99.90
23579;DHT22;11967;50.852;4.400;2024-03-25T08:52:13;11.00;99.90
23579;DHT22;11967;50.852;4.400;2024-03-25T08:54:39;11.20;99.90
23579;DHT22;11967;50.852;4.400;2024-03-25T08:57:04;11.20;99.90
23579;DHT22;11967;50.852;4.400;2024-03-25T08:59:30;11.20;99.90
23579;DHT22;11967;50.852;4.400;2024-03-25T09:01:56;11.30;99.90
23579;DHT22;11967;50.852;4.400;2024-03-25T09:04:21;11.30;99.90
23579;DHT22;11967;50.852;4.400;2024-03-25T09:06:47;11.20;99.90
23579;DHT22;11967;50.852;4.400;2024-03-25T09:09:13;11.20;99.90
23579;DHT22;11967;50.852;4.400;2024-03-25T09:11:57;11.20;99.90
23579;DHT22;11967;50.852;4.400;2024-03-25T09:14:23;11.30;99.90
23579;DHT22;11967;50.852;4.400;2024-03-25T09:16:48;11.40;99.90
23579;DHT22;11967;50.852;4.400;2024-03-25T09:19:14;11.40;99.90
23579;DHT22;11967;50.852;4.400;2024-03-25T09:21:39;11.40;99.90
23579;DHT22;11967;50.852;4.400;2024-03-25T09:24:05;11.50;99.90
23579;DHT22;11967;50.852;4.400;2024-03-25T09:26:31;11.60;99.90
23579;DHT22;11967;50.852;4.400;2024-03-25T09:28:57;11.70;99.90
23579;DHT22;11967;50.852;4.400;2024-03-25T09:31:22;11.90;99.90
23579;DHT22;11967;50.852;4.400;2024-03-25T09:33:49;12.10;99.90
23579;DHT22;11967;50.852;4.400;2024-03-25T09:36:14;12.30;99.90
23579;DHT22;11967;50.852;4.400;2024-03-25T09:38:40;12.40;99.90
23579;DHT22;11967;50.852;4.400;2024-03-25T09:41:08;12.50;99.90
23579;DHT22;11967;50.852;4.400;2024-03-25T09:43:43;12.50;99.90
23579;DHT22;11967;50.852;4.400;2024-03-25T09:46:11;12.60;99.90
23579;DHT22;11967;50.852;4.400;2024-03-25T09:48:37;12.70;99.90
23579;DHT22;11967;50.852;4.400;2024-03-25T09:51:04;12.80;99.90
23579;DHT22;11967;50.852;4.400;2024-03-25T09:53:30;13.00;99.90
23579;DHT22;11967;50.852;4.400;2024-03-25T09:55:57;13.10;99.90
23579;DHT22;11967;50.852;4.400;2024-03-25T09:58:25;13.10;99.90
23579;DHT22;11967;50.852;4.400;2024-03-25T10:00:51;13.30;99.90
23579;DHT22;11967;50.852;4.400;2024-03-25T10:03:17;13.40;99.90
23579;DHT22;11967;50.852;4.400;2024-03-25T10:05:43;13.60;99.90
23579;DHT22;11967;50.852;4.400;2024-03-25T10:08:08;13.70;99.90
23579;DHT22;11967;50.852;4.400;2024-03-25T10:10:35;13.70;99.90
23579;DHT22;11967;50.852;4.400;2024-03-25T10:13:03;13.90;99.90
23579;DHT22;11967;50.852;4.400;2024-03-25T10:15:29;14.00;99.90
23579;DHT22;11967;50.852;4.400;2024-03-25T10:17:55;14.10;99.90
23579;DHT22;11967;50.852;4.400;2024-03-25T10:20:21;14.20;99.90
23579;DHT22;11967;50.852;4.400;2024-03-25T10:22:47;14.20;99.90
23579;DHT22;11967;50.852;4.400;2024-03-25T10:25:26;14.40;99.90
23579;DHT22;11967;50.852;4.400;2024-03-25T10:27:56;14.60;99.90
23579;DHT22;11967;50.852;4.400;2024-03-25T10:30:22;14.70;99.90
23579;DHT22;11967;50.852;4.400;2024-03-25T10:33:02;15.00;99.90
23579;DHT22;11967;50.852;4.400;2024-03-25T10:35:29;15.20;99.90
23579;DHT22;11967;50.852;4.400;2024-03-25T10:38:00;15.40;99.90
23579;DHT22;11967;50.852;4.400;2024-03-25T10:40:38;15.50;99.90
23579;DHT22;11967;50.852;4.400;2024-03-25T10:43:09;15.60;99.90
23579;DHT22;11967;50.852;4.400;2024-03-25T10:45:47;15.70;99.90
23579;DHT22;11967;50.852;4.400;2024-03-25T10:48:25;15.70;99.90
23579;DHT22;11967;50.852;4.400;2024-03-25T10:50:54;15.90;99.90
23579;DHT22;11967;50.852;4.400;2024-03-25T10:53:22;16.00;99.90
23579;DHT22;11967;50.852;4.400;2024-03-25T10:56:06;16.10;99.90
23579;DHT22;11967;50.852;4.400;2024-03-25T10:58:33;16.00;99.90
23579;DHT22;11967;50.852;4.400;2024-03-25T11:01:00;15.90;99.90
23579;DHT22;11967;50.852;4.400;2024-03-25T11:03:26;15.80;99.90
23579;DHT22;11967;50.852;4.400;2024-03-25T11:05:53;15.70;99.90
23579;DHT22;11967;50.852;4.400;2024-03-25T11:08:19;15.50;99.90
23579;DHT22;11967;50.852;4.400;2024-03-25T11:10:46;15.30;99.90
23579;DHT22;11967;50.852;4.400;2024-03-25T11:13:17;15.40;99.90
23579;DHT22;11967;50.852;4.400;2024-03-25T11:15:48;15.50;99.90
23579;DHT22;11967;50.852;4.400;2024-03-25T11:18:15;15.50;99.90
23579;DHT22;11967;50.852;4.400;2024-03-25T11:20:42;15.50;99.90
23579;DHT22;11967;50.852;4.400;2024-03-25T11:23:14;15.50;99.90
23579;DHT22;11967;50.852;4.400;2024-03-25T11:25:43;15.40;99.90
23579;DHT22;11967;50.852;4.400;2024-03-25T11:28:12;15.40;99.90
23579;DHT22;11967;50.852;4.400;2024-03-25T11:30:58;15.40;99.90
23579;DHT22;11967;50.852;4.400;2024-03-25T11:33:24;15.20;99.90
23579;DHT22;11967;50.852;4.400;2024-03-25T11:35:56;15.20;99.90
23579;DHT22;11967;50.852;4.400;2024-03-25T11:38:25;15.20;99.90
23579;DHT22;11967;50.852;4.400;2024-03-25T11:40:58;15.30;99.90
23579;DHT22;11967;50.852;4.400;2024-03-25T11:43:24;15.40;99.90
23579;DHT22;11967;50.852;4.400;2024-03-25T11:45:50;15.40;99.90
23579;DHT22;11967;50.852;4.400;2024-03-25T11:48:16;15.30;99.90
23579;DHT22;11967;50.852;4.400;2024-03-25T11:50:46;15.30;99.90
23579;DHT22;11967;50.852;4.400;2024-03-25T11:53:15;15.30;99.90
23579;DHT22;11967;50.852;4.400;2024-03-25T11:55:45;15.50;99.90
23579;DHT22;11967;50.852;4.400;2024-03-25T11:58:16;15.50;99.90
23579;DHT22;11967;50.852;4.400;2024-03-25T12:00:46;15.40;99.90
23579;DHT22;11967;50.852;4.400;2024-03-25T12:03:15;15.40;99.90
23579;DHT22;11967;50.852;4.400;2024-03-25T12:05:45;15.40;99.90
23579;DHT22;11967;50.852;4.400;2024-03-25T12:08:11;15.50;99.80
23579;DHT22;11967;50.852;4.400;2024-03-25T12:10:38;15.40;97.30
23579;DHT22;11967;50.852;4.400;2024-03-25T12:13:23;15.20;97.90
23579;DHT22;11967;50.852;4.400;2024-03-25T12:15:50;15.20;97.00
23579;DHT22;11967;50.852;4.400;2024-03-25T12:18:16;15.00;97.70
23579;DHT22;11967;50.852;4.400;2024-03-25T12:20:44;14.90;98.70
23579;DHT22;11967;50.852;4.400;2024-03-25T12:23:10;14.80;99.60
23579;DHT22;11967;50.852;4.400;2024-03-25T12:25:36;14.90;98.60
23579;DHT22;11967;50.852;4.400;2024-03-25T12:28:08;14.80;98.30
23579;DHT22;11967;50.852;4.400;2024-03-25T12:30:48;14.80;98.20
23579;DHT22;11967;50.852;4.400;2024-03-25T12:33:14;15.00;98.10
23579;DHT22;11967;50.852;4.400;2024-03-25T12:35:41;15.10;97.60
23579;DHT22;11967;50.852;4.400;2024-03-25T12:38:07;15.20;97.70
23579;DHT22;11967;50.852;4.400;2024-03-25T12:40:33;15.20;96.70
23579;DHT22;11967;50.852;4.400;2024-03-25T12:42:58;15.10;96.50
23579;DHT22;11967;50.852;4.400;2024-03-25T12:45:24;15.10;96.90
23579;DHT22;11967;50.852;4.400;2024-03-25T12:47:50;15.00;96.50
23579;DHT22;11967;50.852;4.400;2024-03-25T12:50:16;15.20;97.30
23579;DHT22;11967;50.852;4.400;2024-03-25T12:52:45;15.10;97.10
23579;DHT22;11967;50.852;4.400;2024-03-25T12:55:11;15.10;97.50
23579;DHT22;11967;50.852;4.400;2024-03-25T12:57:37;15.20;97.50
23579;DHT22;11967;50.852;4.400;2024-03-25T13:00:03;15.30;97.80
23579;DHT22;11967;50.852;4.400;2024-03-25T13:02:33;15.50;97.00
23579;DHT22;11967;50.852;4.400;2024-03-25T13:04:59;15.70;96.70
23579;DHT22;11967;50.852;4.400;2024-03-25T13:07:26;15.90;95.80
23579;DHT22;11967;50.852;4.400;2024-03-25T13:09:52;15.90;94.90
23579;DHT22;11967;50.852;4.400;2024-03-25T13:12:17;15.80;95.50
23579;DHT22;11967;50.852;4.400;2024-03-25T13:14:43;15.80;94.50
23579;DHT22;11967;50.852;4.400;2024-03-25T13:17:08;15.80;93.60
23579;DHT22;11967;50.852;4.400;2024-03-25T13:19:35;15.80;93.40
23579;DHT22;11967;50.852;4.400;2024-03-25T13:22:01;15.90;93.80
23579;DHT22;11967;50.852;4.400;2024-03-25T13:24:27;16.00;93.70
23579;DHT22;11967;50.852;4.400;2024-03-25T13:26:53;16.10;94.00
23579;DHT22;11967;50.852;4.400;2024-03-25T13:29:22;16.20;93.40
23579;DHT22;11967;50.852;4.400;2024-03-25T13:31:47;16.20;92.60
23579;DHT22;11967;50.852;4.400;2024-03-25T13:34:13;16.30;92.60
23579;DHT22;11967;50.852;4.400;2024-03-25T13:36:38;16.30;93.70
23579;DHT22;11967;50.852;4.400;2024-03-25T13:39:04;16.50;94.60
23579;DHT22;11967;50.852;4.400;2024-03-25T13:41:30;16.40;92.60
23579;DHT22;11967;50.852;4.400;2024-03-25T13:43:55;16.40;93.00
23579;DHT22;11967;50.852;4.400;2024-03-25T13:46:21;16.30;92.10
23579;DHT22;11967;50.852;4.400;2024-03-25T13:48:50;16.20;91.90
23579;DHT22;11967;50.852;4.400;2024-03-25T13:51:16;16.10;91.60
23579;DHT22;11967;50.852;4.400;2024-03-25T13:53:41;16.10;91.80
23579;DHT22;11967;50.852;4.400;2024-03-25T13:56:07;16.20;91.70
23579;DHT22;11967;50.852;4.400;2024-03-25T13:58:33;16.10;91.60
23579;DHT22;11967;50.852;4.400;2024-03-25T14:00:58;16.10;91.70
23579;DHT22;11967;50.852;4.400;2024-03-25T14:03:26;16.00;91.60
23579;DHT22;11967;50.852;4.400;2024-03-25T14:05:52;16.10;91.70
23579;DHT22;11967;50.852;4.400;2024-03-25T14:08:18;16.10;91.70
23579;DHT22;11967;50.852;4.400;2024-03-25T14:10:44;16.10;91.90
23579;DHT22;11967;50.852;4.400;2024-03-25T14:13:09;16.10;91.90
23579;DHT22;11967;50.852;4.400;2024-03-25T14:15:35;16.00;92.10
23579;DHT22;11967;50.852;4.400;2024-03-25T14:18:01;16.10;92.50
23579;DHT22;11967;50.852;4.400;2024-03-25T14:20:28;16.00;92.30
23579;DHT22;11967;50.852;4.400;2024-03-25T14:22:54;16.10;92.30
23579;DHT22;11967;50.852;4.400;2024-03-25T14:25:20;16.10;92.10
23579;DHT22;11967;50.852;4.400;2024-03-25T14:27:45;16.00;92.40
23579;DHT22;11967;50.852;4.400;2024-03-25T14:30:11;16.10;92.30
23579;DHT22;11967;50.852;4.400;2024-03-25T14:32:40;16.10;92.70
23579;DHT22;11967;50.852;4.400;2024-03-25T14:35:07;16.00;92.50
23579;DHT22;11967;50.852;4.400;2024-03-25T14:37:33;15.90;92.80
23579;DHT22;11967;50.852;4.400;2024-03-25T14:39:58;15.80;93.20
23579;DHT22;11967;50.852;4.400;2024-03-25T14:42:27;15.80;93.40
23579;DHT22;11967;50.852;4.400;2024-03-25T14:44:52;15.80;93.40
23579;DHT22;11967;50.852;4.400;2024-03-25T14:47:18;15.80;93.60
23579;DHT22;11967;50.852;4.400;2024-03-25T14:49:43;15.90;93.80
23579;DHT22;11967;50.852;4.400;2024-03-25T14:52:09;15.90;93.80
23579;DHT22;11967;50.852;4.400;2024-03-25T14:54:37;15.90;93.60
23579;DHT22;11967;50.852;4.400;2024-03-25T14:57:04;15.90;93.10
23579;DHT22;11967;50.852;4.400;2024-03-25T14:59:30;15.90;93.20
23579;DHT22;11967;50.852;4.400;2024-03-25T15:02:00;15.80;92.30
23579;DHT22;11967;50.852;4.400;2024-03-25T15:04:26;15.80;92.30
23579;DHT22;11967;50.852;4.400;2024-03-25T15:06:52;15.80;92.30
23579;DHT22;11967;50.852;4.400;2024-03-25T15:09:17;15.80;92.70
23579;DHT22;11967;50.852;4.400;2024-03-25T15:11:43;15.80;92.70
23579;DHT22;11967;50.852;4.400;2024-03-25T15:14:08;15.80;92.80
23579;DHT22;11967;50.852;4.400;2024-03-25T15:16:34;15.80;93.20
23579;DHT22;11967;50.852;4.400;2024-03-25T15:19:00;15.80;93.00
23579;DHT22;11967;50.852;4.400;2024-03-25T15:21:25;15.80;93.10
23579;DHT22;11967;50.852;4.400;2024-03-25T15:23:52;15.80;93.00
23579;DHT22;11967;50.852;4.400;2024-03-25T15:26:18;15.90;93.10
23579;DHT22;11967;50.852;4.400;2024-03-25T15:28:43;16.00;93.10
23579;DHT22;11967;50.852;4.400;2024-03-25T15:31:09;15.90;93.20
23579;DHT22;11967;50.852;4.400;2024-03-25T15:33:35;15.70;93.60